Hill City, Kansas
Current Conditions -  °F | °C
As of 4:53 PM on Friday 19 Dec 2014 (Local Time) from KHLC Reporting Station
Clear Clear  
Wind Chill: 44°   Ceiling: Unl
Heat Index: 48°   Visibility: 10mi
Dew Point: 29°   Wind: 8mph
Humidity: 48%   Direction: 210°SSW
Pressure: 30.07"   Gusts: NA
Location:  39.36°N, 99.84°W
Report Text: KHLC 192253Z AUTO 21007KT 10SM CLR 09/M02 A3007 RMK AO2 SLP190 T00891017
Loading
Personal Weather Stations






























Interactive Weather Map New forecast layout! Learn more

10-Day Weather Forecast

Advertisements
Track Severe Weather on mobile